sensor_id;sensor_type;location;lat;lon;timestamp;temperature;humidity
4429;DHT22;2227;47.810;8.810;2023-12-04T04:48:19;-5.20;99.90
4429;DHT22;2227;47.810;8.810;2023-12-04T04:50:46;-5.20;99.90
4429;DHT22;2227;47.810;8.810;2023-12-04T04:53:13;-5.20;99.90
4429;DHT22;2227;47.810;8.810;2023-12-04T04:55:39;-5.20;99.90
4429;DHT22;2227;47.810;8.810;2023-12-04T04:58:16;-5.20;99.90
4429;DHT22;2227;47.810;8.810;2023-12-04T05:00:43;-5.10;99.90
4429;DHT22;2227;47.810;8.810;2023-12-04T05:03:10;-5.10;99.90
4429;DHT22;2227;47.810;8.810;2023-12-04T05:05:37;-4.90;99.90
4429;DHT22;2227;47.810;8.810;2023-12-04T05:08:04;-5.00;99.90
4429;DHT22;2227;47.810;8.810;2023-12-04T05:10:30;-5.10;99.90
4429;DHT22;2227;47.810;8.810;2023-12-04T05:12:58;-5.00;99.90
4429;DHT22;2227;47.810;8.810;2023-12-04T05:15:25;-5.10;99.90
4429;DHT22;2227;47.810;8.810;2023-12-04T05:17:53;-5.10;99.90
4429;DHT22;2227;47.810;8.810;2023-12-04T05:20:20;-5.00;99.90
4429;DHT22;2227;47.810;8.810;2023-12-04T05:22:46;-5.00;99.90
4429;DHT22;2227;47.810;8.810;2023-12-04T05:25:14;-5.10;99.90
4429;DHT22;2227;47.810;8.810;2023-12-04T05:27:41;-5.10;99.90
4429;DHT22;2227;47.810;8.810;2023-12-04T05:30:08;-5.00;99.90
4429;DHT22;2227;47.810;8.810;2023-12-04T05:32:34;-5.00;99.90
4429;DHT22;2227;47.810;8.810;2023-12-04T05:35:01;-5.00;99.90
4429;DHT22;2227;47.810;8.810;2023-12-04T05:37:29;-4.90;99.90
4429;DHT22;2227;47.810;8.810;2023-12-04T05:39:56;-4.80;99.90
4429;DHT22;2227;47.810;8.810;2023-12-04T05:42:23;-4.80;99.90
4429;DHT22;2227;47.810;8.810;2023-12-04T05:44:49;-4.90;99.90
4429;DHT22;2227;47.810;8.810;2023-12-04T05:47:16;-4.90;99.90
4429;DHT22;2227;47.810;8.810;2023-12-04T05:49:43;-4.90;99.90
4429;DHT22;2227;47.810;8.810;2023-12-04T05:52:10;-4.90;99.90
4429;DHT22;2227;47.810;8.810;2023-12-04T05:54:37;-4.90;99.90
4429;DHT22;2227;47.810;8.810;2023-12-04T05:57:04;-4.80;99.90
4429;DHT22;2227;47.810;8.810;2023-12-04T05:59:31;-4.80;99.90
4429;DHT22;2227;47.810;8.810;2023-12-04T06:01:57;-4.70;99.90
4429;DHT22;2227;47.810;8.810;2023-12-04T06:04:24;-4.60;99.90
4429;DHT22;2227;47.810;8.810;2023-12-04T06:06:51;-4.60;99.90
4429;DHT22;2227;47.810;8.810;2023-12-04T06:09:17;-4.60;99.90
4429;DHT22;2227;47.810;8.810;2023-12-04T06:11:44;-4.70;99.90
4429;DHT22;2227;47.810;8.810;2023-12-04T06:14:13;-4.90;99.90
4429;DHT22;2227;47.810;8.810;2023-12-04T06:16:40;-5.00;99.90
4429;DHT22;2227;47.810;8.810;2023-12-04T06:19:07;-5.00;99.90
4429;DHT22;2227;47.810;8.810;2023-12-04T06:21:33;-5.00;99.90
4429;DHT22;2227;47.810;8.810;2023-12-04T06:24:01;-5.00;99.90
4429;DHT22;2227;47.810;8.810;2023-12-04T06:26:31;-4.90;99.90
4429;DHT22;2227;47.810;8.810;2023-12-04T06:29:00;-4.90;99.90
4429;DHT22;2227;47.810;8.810;2023-12-04T06:31:27;-4.80;99.90
4429;DHT22;2227;47.810;8.810;2023-12-04T06:33:54;-4.70;99.90
4429;DHT22;2227;47.810;8.810;2023-12-04T06:36:21;-4.70;99.90
4429;DHT22;2227;47.810;8.810;2023-12-04T06:38:50;-4.60;99.90
4429;DHT22;2227;47.810;8.810;2023-12-04T06:41:18;-4.60;99.90
4429;DHT22;2227;47.810;8.810;2023-12-04T06:43:45;-4.70;99.90
4429;DHT22;2227;47.810;8.810;2023-12-04T06:46:14;-4.60;99.90
4429;DHT22;2227;47.810;8.810;2023-12-04T06:48:43;-4.60;99.90
4429;DHT22;2227;47.810;8.810;2023-12-04T06:51:10;-4.60;99.90
4429;DHT22;2227;47.810;8.810;2023-12-04T06:53:36;-4.60;99.90
4429;DHT22;2227;47.810;8.810;2023-12-04T06:56:03;-4.60;99.90
4429;DHT22;2227;47.810;8.810;2023-12-04T06:58:30;-4.50;99.90
4429;DHT22;2227;47.810;8.810;2023-12-04T07:00:57;-4.30;99.90
4429;DHT22;2227;47.810;8.810;2023-12-04T07:03:24;-4.60;99.90
4429;DHT22;2227;47.810;8.810;2023-12-04T07:05:51;-4.60;99.90
4429;DHT22;2227;47.810;8.810;2023-12-04T07:08:18;-4.80;99.90
4429;DHT22;2227;47.810;8.810;2023-12-04T07:10:44;-4.80;99.90
4429;DHT22;2227;47.810;8.810;2023-12-04T07:13:11;-4.80;99.90
4429;DHT22;2227;47.810;8.810;2023-12-04T07:15:39;-4.80;99.90
4429;DHT22;2227;47.810;8.810;2023-12-04T07:18:06;-5.00;99.90
4429;DHT22;2227;47.810;8.810;2023-12-04T07:20:33;-4.90;99.90
4429;DHT22;2227;47.810;8.810;2023-12-04T07:22:59;-4.90;99.90
4429;DHT22;2227;47.810;8.810;2023-12-04T07:25:26;-4.60;99.90
4429;DHT22;2227;47.810;8.810;2023-12-04T07:27:53;-4.60;99.90
4429;DHT22;2227;47.810;8.810;2023-12-04T07:30:19;-4.40;99.90
4429;DHT22;2227;47.810;8.810;2023-12-04T07:32:47;-4.30;99.90
4429;DHT22;2227;47.810;8.810;2023-12-04T07:35:14;-4.20;99.90
4429;DHT22;2227;47.810;8.810;2023-12-04T07:37:40;-4.10;99.90
4429;DHT22;2227;47.810;8.810;2023-12-04T07:40:08;-4.10;99.90
4429;DHT22;2227;47.810;8.810;2023-12-04T07:42:35;-4.10;99.90
4429;DHT22;2227;47.810;8.810;2023-12-04T07:45:02;-4.20;99.90
4429;DHT22;2227;47.810;8.810;2023-12-04T07:47:29;-4.40;99.90
4429;DHT22;2227;47.810;8.810;2023-12-04T07:49:57;-4.30;99.90
4429;DHT22;2227;47.810;8.810;2023-12-04T07:52:23;-4.20;99.90
4429;DHT22;2227;47.810;8.810;2023-12-04T07:54:50;-4.30;99.90
4429;DHT22;2227;47.810;8.810;2023-12-04T07:57:18;-4.30;99.90
4429;DHT22;2227;47.810;8.810;2023-12-04T07:59:45;-4.40;99.90
4429;DHT22;2227;47.810;8.810;2023-12-04T08:02:15;-4.30;99.90
4429;DHT22;2227;47.810;8.810;2023-12-04T08:04:42;-4.30;99.90
4429;DHT22;2227;47.810;8.810;2023-12-04T08:07:08;-4.50;99.90
4429;DHT22;2227;47.810;8.810;2023-12-04T08:09:35;-4.30;99.90
4429;DHT22;2227;47.810;8.810;2023-12-04T08:12:02;-4.20;99.90
4429;DHT22;2227;47.810;8.810;2023-12-04T08:14:29;-4.10;99.90
4429;DHT22;2227;47.810;8.810;2023-12-04T08:16:56;-3.90;99.90
4429;DHT22;2227;47.810;8.810;2023-12-04T08:19:22;-3.90;99.90
4429;DHT22;2227;47.810;8.810;2023-12-04T08:21:50;-3.90;99.90
4429;DHT22;2227;47.810;8.810;2023-12-04T08:24:17;-3.70;99.90
4429;DHT22;2227;47.810;8.810;2023-12-04T08:26:45;-3.60;99.90
4429;DHT22;2227;47.810;8.810;2023-12-04T08:29:12;-3.70;99.90
4429;DHT22;2227;47.810;8.810;2023-12-04T08:31:39;-3.90;99.90
4429;DHT22;2227;47.810;8.810;2023-12-04T08:34:05;-3.70;99.90
4429;DHT22;2227;47.810;8.810;2023-12-04T08:36:32;-3.60;99.90
4429;DHT22;2227;47.810;8.810;2023-12-04T08:39:12;-3.50;99.90
4429;DHT22;2227;47.810;8.810;2023-12-04T08:41:39;-3.50;99.90
4429;DHT22;2227;47.810;8.810;2023-12-04T08:44:16;-3.30;99.90
4429;DHT22;2227;47.810;8.810;2023-12-04T08:46:44;-3.70;99.90
4429;DHT22;2227;47.810;8.810;2023-12-04T08:49:11;-3.50;99.90
4429;DHT22;2227;47.810;8.810;2023-12-04T08:51:38;-3.30;99.90
4429;DHT22;2227;47.810;8.810;2023-12-04T08:54:06;-3.20;99.90
4429;DHT22;2227;47.810;8.810;2023-12-04T08:56:36;-3.30;99.90
4429;DHT22;2227;47.810;8.810;2023-12-04T08:59:03;-3.40;99.90
4429;DHT22;2227;47.810;8.810;2023-12-04T09:01:30;-3.60;99.90
4429;DHT22;2227;47.810;8.810;2023-12-04T09:03:58;-3.60;99.90
4429;DHT22;2227;47.810;8.810;2023-12-04T09:06:25;-3.30;99.90
4429;DHT22;2227;47.810;8.810;2023-12-04T09:09:12;-3.30;99.90
4429;DHT22;2227;47.810;8.810;2023-12-04T09:11:41;-3.20;99.90
4429;DHT22;2227;47.810;8.810;2023-12-04T09:14:09;-3.00;99.90
4429;DHT22;2227;47.810;8.810;2023-12-04T09:16:36;-3.00;99.90
4429;DHT22;2227;47.810;8.810;2023-12-04T09:19:03;-2.80;99.90
4429;DHT22;2227;47.810;8.810;2023-12-04T09:21:31;-2.50;99.90
4429;DHT22;2227;47.810;8.810;2023-12-04T09:23:58;-2.30;99.90
4429;DHT22;2227;47.810;8.810;2023-12-04T09:26:25;-2.40;99.90
4429;DHT22;2227;47.810;8.810;2023-12-04T09:28:51;-2.30;99.90
4429;DHT22;2227;47.810;8.810;2023-12-04T09:31:19;-2.20;99.90
4429;DHT22;2227;47.810;8.810;2023-12-04T09:33:46;-2.00;99.90
4429;DHT22;2227;47.810;8.810;2023-12-04T09:36:14;-1.90;99.90
4429;DHT22;2227;47.810;8.810;2023-12-04T09:38:41;-1.90;99.90
4429;DHT22;2227;47.810;8.810;2023-12-04T09:41:09;-1.90;99.90
4429;DHT22;2227;47.810;8.810;2023-12-04T09:43:37;-1.70;99.90
4429;DHT22;2227;47.810;8.810;2023-12-04T09:46:04;-1.70;99.90
4429;DHT22;2227;47.810;8.810;2023-12-04T09:48:31;-1.70;99.90
4429;DHT22;2227;47.810;8.810;2023-12-04T09:50:59;-1.60;99.90
4429;DHT22;2227;47.810;8.810;2023-12-04T09:53:27;-1.50;99.90
4429;DHT22;2227;47.810;8.810;2023-12-04T09:55:57;-1.30;99.90
4429;DHT22;2227;47.810;8.810;2023-12-04T09:58:26;-1.30;99.90
4429;DHT22;2227;47.810;8.810;2023-12-04T10:00:55;-1.10;99.90
4429;DHT22;2227;47.810;8.810;2023-12-04T10:03:22;-0.40;99.90
4429;DHT22;2227;47.810;8.810;2023-12-04T10:05:50;0.30;99.90
4429;DHT22;2227;47.810;8.810;2023-12-04T10:08:16;0.70;99.90
4429;DHT22;2227;47.810;8.810;2023-12-04T10:10:43;0.40;99.90
4429;DHT22;2227;47.810;8.810;2023-12-04T10:13:11;0.40;99.90
4429;DHT22;2227;47.810;8.810;2023-12-04T10:15:45;0.40;99.90
4429;DHT22;2227;47.810;8.810;2023-12-04T10:18:28;0.50;99.90
4429;DHT22;2227;47.810;8.810;2023-12-04T10:20:57;0.50;99.90
4429;DHT22;2227;47.810;8.810;2023-12-04T10:23:40;0.30;99.90
4429;DHT22;2227;47.810;8.810;2023-12-04T10:26:07;0.20;99.90
4429;DHT22;2227;47.810;8.810;2023-12-04T10:28:34;0.10;99.90
4429;DHT22;2227;47.810;8.810;2023-12-04T10:31:01;0.30;99.90
4429;DHT22;2227;47.810;8.810;2023-12-04T10:33:29;0.50;99.90
4429;DHT22;2227;47.810;8.810;2023-12-04T10:35:56;0.50;99.90
4429;DHT22;2227;47.810;8.810;2023-12-04T10:38:22;0.60;99.90
4429;DHT22;2227;47.810;8.810;2023-12-04T10:40:51;1.00;99.90
4429;DHT22;2227;47.810;8.810;2023-12-04T10:43:19;1.70;99.90
4429;DHT22;2227;47.810;8.810;2023-12-04T10:45:49;2.40;99.90
4429;DHT22;2227;47.810;8.810;2023-12-04T10:48:16;3.60;99.90
4429;DHT22;2227;47.810;8.810;2023-12-04T10:50:44;5.00;99.90
4429;DHT22;2227;47.810;8.810;2023-12-04T10:53:12;6.60;99.90
4429;DHT22;2227;47.810;8.810;2023-12-04T10:55:39;6.80;99.90
4429;DHT22;2227;47.810;8.810;2023-12-04T10:58:13;6.00;99.90
4429;DHT22;2227;47.810;8.810;2023-12-04T11:00:44;5.90;99.90
4429;DHT22;2227;47.810;8.810;2023-12-04T11:03:25;6.20;99.90
4429;DHT22;2227;47.810;8.810;2023-12-04T11:05:56;5.50;99.90
4429;DHT22;2227;47.810;8.810;2023-12-04T11:08:23;4.70;99.90
4429;DHT22;2227;47.810;8.810;2023-12-04T11:13:21;6.00;99.90
4429;DHT22;2227;47.810;8.810;2023-12-04T11:15:48;7.30;99.90
4429;DHT22;2227;47.810;8.810;2023-12-04T11:18:20;8.30;99.90
4429;DHT22;2227;47.810;8.810;2023-12-04T11:20:53;8.40;99.90
4429;DHT22;2227;47.810;8.810;2023-12-04T11:23:23;7.20;99.90
4429;DHT22;2227;47.810;8.810;2023-12-04T11:25:51;6.30;99.90
4429;DHT22;2227;47.810;8.810;2023-12-04T11:28:18;5.50;99.90
4429;DHT22;2227;47.810;8.810;2023-12-04T11:30:45;5.30;99.90
4429;DHT22;2227;47.810;8.810;2023-12-04T11:33:12;4.80;99.90
4429;DHT22;2227;47.810;8.810;2023-12-04T11:35:39;4.50;99.90
4429;DHT22;2227;47.810;8.810;2023-12-04T11:38:06;4.30;99.90
4429;DHT22;2227;47.810;8.810;2023-12-04T11:40:34;4.20;99.90
4429;DHT22;2227;47.810;8.810;2023-12-04T11:43:01;4.30;99.90
4429;DHT22;2227;47.810;8.810;2023-12-04T11:45:27;4.30;99.90
4429;DHT22;2227;47.810;8.810;2023-12-04T11:47:58;4.50;99.90
4429;DHT22;2227;47.810;8.810;2023-12-04T11:50:25;4.80;99.90
4429;DHT22;2227;47.810;8.810;2023-12-04T11:52:51;4.60;99.90
4429;DHT22;2227;47.810;8.810;2023-12-04T11:55:22;4.00;99.90
4429;DHT22;2227;47.810;8.810;2023-12-04T11:57:49;4.50;99.90
4429;DHT22;2227;47.810;8.810;2023-12-04T12:05:39;3.90;99.90
4429;DHT22;2227;47.810;8.810;2023-12-04T12:08:08;3.60;99.90
4429;DHT22;2227;47.810;8.810;2023-12-04T12:10:34;3.30;99.90
4429;DHT22;2227;47.810;8.810;2023-12-04T12:13:01;3.30;99.90
4429;DHT22;2227;47.810;8.810;2023-12-04T12:15:28;3.00;99.90
4429;DHT22;2227;47.810;8.810;2023-12-04T12:17:55;2.80;99.90
4429;DHT22;2227;47.810;8.810;2023-12-04T12:20:22;2.40;99.90
4429;DHT22;2227;47.810;8.810;2023-12-04T12:22:49;1.90;99.90
4429;DHT22;2227;47.810;8.810;2023-12-04T12:25:16;1.60;99.90
4429;DHT22;2227;47.810;8.810;2023-12-04T12:27:43;1.50;99.90
4429;DHT22;2227;47.810;8.810;2023-12-04T12:30:10;1.20;99.90
4429;DHT22;2227;47.810;8.810;2023-12-04T12:32:36;1.20;99.90
4429;DHT22;2227;47.810;8.810;2023-12-04T12:35:04;1.20;99.90
4429;DHT22;2227;47.810;8.810;2023-12-04T12:37:30;1.30;99.90
4429;DHT22;2227;47.810;8.810;2023-12-04T12:39:57;1.30;99.90
4429;DHT22;2227;47.810;8.810;2023-12-04T12:42:24;1.20;99.90
4429;DHT22;2227;47.810;8.810;2023-12-04T12:44:52;1.10;99.90
4429;DHT22;2227;47.810;8.810;2023-12-04T12:47:19;1.20;99.90
4429;DHT22;2227;47.810;8.810;2023-12-04T12:49:46;1.20;99.90
4429;DHT22;2227;47.810;8.810;2023-12-04T12:52:13;1.10;99.90
4429;DHT22;2227;47.810;8.810;2023-12-04T12:54:41;1.20;99.90
4429;DHT22;2227;47.810;8.810;2023-12-04T12:57:07;1.20;99.90
4429;DHT22;2227;47.810;8.810;2023-12-04T12:59:34;1.20;99.90
4429;DHT22;2227;47.810;8.810;2023-12-04T13:02:01;1.20;99.90
4429;DHT22;2227;47.810;8.810;2023-12-04T13:04:37;0.90;99.90
4429;DHT22;2227;47.810;8.810;2023-12-04T13:07:05;1.00;99.90
4429;DHT22;2227;47.810;8.810;2023-12-04T13:09:33;1.10;99.90
4429;DHT22;2227;47.810;8.810;2023-12-04T13:12:02;1.00;99.90
4429;DHT22;2227;47.810;8.810;2023-12-04T13:14:29;1.00;99.90
4429;DHT22;2227;47.810;8.810;2023-12-04T13:16:55;0.80;99.90
4429;DHT22;2227;47.810;8.810;2023-12-04T13:19:22;0.80;99.90
4429;DHT22;2227;47.810;8.810;2023-12-04T13:21:53;0.90;99.90
4429;DHT22;2227;47.810;8.810;2023-12-04T13:24:21;0.80;99.90
4429;DHT22;2227;47.810;8.810;2023-12-04T13:26:47;0.80;99.90
4429;DHT22;2227;47.810;8.810;2023-12-04T13:29:14;0.70;99.90
4429;DHT22;2227;47.810;8.810;2023-12-04T13:31:45;0.70;99.90
4429;DHT22;2227;47.810;8.810;2023-12-04T13:34:17;0.50;99.90
4429;DHT22;2227;47.810;8.810;2023-12-04T13:36:44;0.30;99.90
4429;DHT22;2227;47.810;8.810;2023-12-04T13:39:11;0.30;99.90
4429;DHT22;2227;47.810;8.810;2023-12-04T13:41:46;0.30;99.90
4429;DHT22;2227;47.810;8.810;2023-12-04T13:44:32;0.20;99.90
4429;DHT22;2227;47.810;8.810;2023-12-04T13:47:00;0.20;99.90
4429;DHT22;2227;47.810;8.810;2023-12-04T13:49:26;0.40;99.90
4429;DHT22;2227;47.810;8.810;2023-12-04T13:51:54;0.50;99.90
4429;DHT22;2227;47.810;8.810;2023-12-04T13:54:21;0.50;99.90
4429;DHT22;2227;47.810;8.810;2023-12-04T13:56:54;0.40;99.90
4429;DHT22;2227;47.810;8.810;2023-12-04T13:59:23;0.50;99.90
4429;DHT22;2227;47.810;8.810;2023-12-04T14:01:50;0.40;99.90
4429;DHT22;2227;47.810;8.810;2023-12-04T14:04:18;0.40;99.90
4429;DHT22;2227;47.810;8.810;2023-12-04T14:06:45;0.30;99.90
4429;DHT22;2227;47.810;8.810;2023-12-04T14:09:13;0.40;99.90
4429;DHT22;2227;47.810;8.810;2023-12-04T14:11:43;0.30;99.90
4429;DHT22;2227;47.810;8.810;2023-12-04T14:14:11;0.20;99.90
4429;DHT22;2227;47.810;8.810;2023-12-04T14:16:39;0.10;99.90
4429;DHT22;2227;47.810;8.810;2023-12-04T14:19:07;0.00;99.90
4429;DHT22;2227;47.810;8.810;2023-12-04T14:21:33;0.10;99.90
4429;DHT22;2227;47.810;8.810;2023-12-04T14:24:00;0.10;99.90
4429;DHT22;2227;47.810;8.810;2023-12-04T14:26:27;0.30;99.90
4429;DHT22;2227;47.810;8.810;2023-12-04T14:28:54;0.30;99.90
4429;DHT22;2227;47.810;8.810;2023-12-04T14:31:23;0.30;99.90
4429;DHT22;2227;47.810;8.810;2023-12-04T14:33:50;0.30;99.90
4429;DHT22;2227;47.810;8.810;2023-12-04T14:36:16;0.20;99.90
4429;DHT22;2227;47.810;8.810;2023-12-04T14:38:43;0.10;99.90
4429;DHT22;2227;47.810;8.810;2023-12-04T14:41:10;0.10;99.90
4429;DHT22;2227;47.810;8.810;2023-12-04T14:43:36;0.10;99.90
4429;DHT22;2227;47.810;8.810;2023-12-04T14:46:04;0.10;99.90
4429;DHT22;2227;47.810;8.810;2023-12-04T14:48:31;-0.10;99.90
4429;DHT22;2227;47.810;8.810;2023-12-04T14:50:58;-0.10;99.90
4429;DHT22;2227;47.810;8.810;2023-12-04T14:53:28;-0.10;99.90
4429;DHT22;2227;47.810;8.810;2023-12-04T14:55:57;-0.10;99.90
4429;DHT22;2227;47.810;8.810;2023-12-04T14:58:59;-0.20;99.90
4429;DHT22;2227;47.810;8.810;2023-12-04T15:01:25;-0.20;99.90
4429;DHT22;2227;47.810;8.810;2023-12-04T15:04:24;-0.30;99.90
4429;DHT22;2227;47.810;8.810;2023-12-04T15:07:10;-0.20;99.90
4429;DHT22;2227;47.810;8.810;2023-12-04T15:09:36;-0.20;99.90
4429;DHT22;2227;47.810;8.810;2023-12-04T15:12:12;0.00;99.90
4429;DHT22;2227;47.810;8.810;2023-12-04T15:15:14;0.10;99.90
4429;DHT22;2227;47.810;8.810;2023-12-04T15:18:01;0.10;99.90
4429;DHT22;2227;47.810;8.810;2023-12-04T15:20:46;0.10;99.90
4429;DHT22;2227;47.810;8.810;2023-12-04T15:23:13;0.10;99.90
4429;DHT22;2227;47.810;8.810;2023-12-04T15:25:40;0.10;99.90
4429;DHT22;2227;47.810;8.810;2023-12-04T15:28:06;-0.10;99.90
4429;DHT22;2227;47.810;8.810;2023-12-04T15:30:34;0.00;99.90
4429;DHT22;2227;47.810;8.810;2023-12-04T15:33:01;-0.10;99.90
4429;DHT22;2227;47.810;8.810;2023-12-04T15:35:27;-0.10;99.90
4429;DHT22;2227;47.810;8.810;2023-12-04T15:37:54;-0.10;99.90
4429;DHT22;2227;47.810;8.810;2023-12-04T15:40:21;-0.10;99.90
4429;DHT22;2227;47.810;8.810;2023-12-04T15:42:47;-0.10;99.90
4429;DHT22;2227;47.810;8.810;2023-12-04T15:45:14;-0.10;99.90
4429;DHT22;2227;47.810;8.810;2023-12-04T15:47:41;0.00;99.90
4429;DHT22;2227;47.810;8.810;2023-12-04T15:50:07;0.00;99.90
4429;DHT22;2227;47.810;8.810;2023-12-04T15:52:34;-0.10;99.90
4429;DHT22;2227;47.810;8.810;2023-12-04T15:55:06;-0.10;99.90
4429;DHT22;2227;47.810;8.810;2023-12-04T15:57:33;-0.20;99.90
4429;DHT22;2227;47.810;8.810;2023-12-04T16:00:00;-0.20;99.90
4429;DHT22;2227;47.810;8.810;2023-12-04T16:02:26;-0.20;99.90
4429;DHT22;2227;47.810;8.810;2023-12-04T16:04:54;-0.10;99.90
4429;DHT22;2227;47.810;8.810;2023-12-04T16:07:23;-0.20;99.90
4429;DHT22;2227;47.810;8.810;2023-12-04T16:09:50;-0.20;99.90
4429;DHT22;2227;47.810;8.810;2023-12-04T16:12:17;-0.10;99.90
4429;DHT22;2227;47.810;8.810;2023-12-04T16:14:43;0.10;99.90
4429;DHT22;2227;47.810;8.810;2023-12-04T16:17:10;0.00;99.90
4429;DHT22;2227;47.810;8.810;2023-12-04T16:19:36;0.00;99.90
4429;DHT22;2227;47.810;8.810;2023-12-04T16:22:03;-0.10;99.90
4429;DHT22;2227;47.810;8.810;2023-12-04T16:24:30;-0.10;99.90
4429;DHT22;2227;47.810;8.810;2023-12-04T16:26:57;-0.10;99.90
4429;DHT22;2227;47.810;8.810;2023-12-04T16:29:24;-0.20;99.90
4429;DHT22;2227;47.810;8.810;2023-12-04T16:31:54;-0.10;99.90
4429;DHT22;2227;47.810;8.810;2023-12-04T16:34:21;-0.10;99.90
4429;DHT22;2227;47.810;8.810;2023-12-04T16:36:47;0.00;99.90
4429;DHT22;2227;47.810;8.810;2023-12-04T16:39:15;-0.10;99.90
4429;DHT22;2227;47.810;8.810;2023-12-04T16:41:43;-0.10;99.90
4429;DHT22;2227;47.810;8.810;2023-12-04T16:44:09;-0.10;99.90
4429;DHT22;2227;47.810;8.810;2023-12-04T16:46:41;-0.40;99.90
4429;DHT22;2227;47.810;8.810;2023-12-04T16:49:08;-0.40;99.90
4429;DHT22;2227;47.810;8.810;2023-12-04T16:51:35;-0.40;99.90
4429;DHT22;2227;47.810;8.810;2023-12-04T16:54:01;-0.50;99.90
4429;DHT22;2227;47.810;8.810;2023-12-04T16:56:28;-0.40;99.90
4429;DHT22;2227;47.810;8.810;2023-12-04T16:58:57;-0.40;99.90
4429;DHT22;2227;47.810;8.810;2023-12-04T17:01:24;-0.20;99.90
4429;DHT22;2227;47.810;8.810;2023-12-04T17:03:50;-0.50;99.90
4429;DHT22;2227;47.810;8.810;2023-12-04T17:06:18;-0.50;99.90
4429;DHT22;2227;47.810;8.810;2023-12-04T17:08:45;-0.30;99.90
4429;DHT22;2227;47.810;8.810;2023-12-04T17:11:13;-0.30;99.90
4429;DHT22;2227;47.810;8.810;2023-12-04T17:13:39;-0.40;99.90
4429;DHT22;2227;47.810;8.810;2023-12-04T17:16:06;-0.40;99.90
4429;DHT22;2227;47.810;8.810;2023-12-04T17:18:33;-0.40;99.90
4429;DHT22;2227;47.810;8.810;2023-12-04T17:21:03;-0.30;99.90
4429;DHT22;2227;47.810;8.810;2023-12-04T17:23:29;-0.30;99.90
4429;DHT22;2227;47.810;8.810;2023-12-04T17:25:56;-0.40;99.90
4429;DHT22;2227;47.810;8.810;2023-12-04T17:28:23;-0.30;99.90
4429;DHT22;2227;47.810;8.810;2023-12-04T17:30:49;-0.30;99.90
4429;DHT22;2227;47.810;8.810;2023-12-04T17:33:17;-0.10;99.90
4429;DHT22;2227;47.810;8.810;2023-12-04T17:35:44;0.00;99.90
4429;DHT22;2227;47.810;8.810;2023-12-04T17:38:12;0.00;99.90
4429;DHT22;2227;47.810;8.810;2023-12-04T17:40:39;0.00;99.90
4429;DHT22;2227;47.810;8.810;2023-12-04T17:43:05;0.10;99.90
4429;DHT22;2227;47.810;8.810;2023-12-04T17:45:33;0.00;99.90
4429;DHT22;2227;47.810;8.810;2023-12-04T17:48:00;-0.10;99.90
4429;DHT22;2227;47.810;8.810;2023-12-04T17:50:27;0.00;99.90
4429;DHT22;2227;47.810;8.810;2023-12-04T17:52:53;0.00;99.90
4429;DHT22;2227;47.810;8.810;2023-12-04T17:55:20;0.00;99.90
4429;DHT22;2227;47.810;8.810;2023-12-04T17:57:48;0.00;99.90
4429;DHT22;2227;47.810;8.810;2023-12-04T18:00:15;-0.10;99.90
4429;DHT22;2227;47.810;8.810;2023-12-04T18:02:43;-0.20;99.90
4429;DHT22;2227;47.810;8.810;2023-12-04T18:05:12;-0.20;99.90
4429;DHT22;2227;47.810;8.810;2023-12-04T18:07:38;-0.20;99.90
4429;DHT22;2227;47.810;8.810;2023-12-04T18:10:06;-0.30;99.90
4429;DHT22;2227;47.810;8.810;2023-12-04T18:12:33;-0.30;99.90
4429;DHT22;2227;47.810;8.810;2023-12-04T18:15:00;-0.40;99.90
4429;DHT22;2227;47.810;8.810;2023-12-04T18:17:26;-0.30;99.90
4429;DHT22;2227;47.810;8.810;2023-12-04T18:19:54;-0.40;99.90
4429;DHT22;2227;47.810;8.810;2023-12-04T18:22:21;-0.30;99.90
4429;DHT22;2227;47.810;8.810;2023-12-04T18:24:48;-0.30;99.90
4429;DHT22;2227;47.810;8.810;2023-12-04T18:27:15;-0.30;99.90
4429;DHT22;2227;47.810;8.810;2023-12-04T18:29:42;-0.20;99.90
4429;DHT22;2227;47.810;8.810;2023-12-04T18:32:09;-0.20;99.90
4429;DHT22;2227;47.810;8.810;2023-12-04T18:34:36;-0.30;99.90
4429;DHT22;2227;47.810;8.810;2023-12-04T18:37:13;-0.40;99.90
4429;DHT22;2227;47.810;8.810;2023-12-04T18:39:43;-0.30;99.90
4429;DHT22;2227;47.810;8.810;2023-12-04T18:42:12;-0.30;99.90
4429;DHT22;2227;47.810;8.810;2023-12-04T18:44:38;-0.30;99.90
4429;DHT22;2227;47.810;8.810;2023-12-04T18:47:06;-0.50;99.90
4429;DHT22;2227;47.810;8.810;2023-12-04T18:49:34;-0.50;99.90
4429;DHT22;2227;47.810;8.810;2023-12-04T18:52:03;-0.50;99.90
4429;DHT22;2227;47.810;8.810;2023-12-04T18:54:29;-0.60;99.90
4429;DHT22;2227;47.810;8.810;2023-12-04T18:56:56;-0.60;99.90
4429;DHT22;2227;47.810;8.810;2023-12-04T18:59:25;-0.70;99.90
4429;DHT22;2227;47.810;8.810;2023-12-04T19:01:51;-0.80;99.90
4429;DHT22;2227;47.810;8.810;2023-12-04T19:04:18;-0.80;99.90
4429;DHT22;2227;47.810;8.810;2023-12-04T19:06:45;-0.80;99.90
4429;DHT22;2227;47.810;8.810;2023-12-04T19:09:12;-0.90;99.90
4429;DHT22;2227;47.810;8.810;2023-12-04T19:11:38;-1.10;99.90
4429;DHT22;2227;47.810;8.810;2023-12-04T19:14:05;-1.10;99.90
4429;DHT22;2227;47.810;8.810;2023-12-04T19:16:32;-1.40;99.90
4429;DHT22;2227;47.810;8.810;2023-12-04T19:18:58;-1.50;99.90
4429;DHT22;2227;47.810;8.810;2023-12-04T19:21:25;-1.50;99.90
4429;DHT22;2227;47.810;8.810;2023-12-04T19:23:52;-1.70;99.90
4429;DHT22;2227;47.810;8.810;2023-12-04T19:26:19;-1.80;99.90
4429;DHT22;2227;47.810;8.810;2023-12-04T19:28:45;-1.90;99.90
4429;DHT22;2227;47.810;8.810;2023-12-04T19:31:12;-1.80;99.90
4429;DHT22;2227;47.810;8.810;2023-12-04T19:33:38;-1.70;99.90
4429;DHT22;2227;47.810;8.810;2023-12-04T19:36:06;-1.80;99.90
4429;DHT22;2227;47.810;8.810;2023-12-04T19:38:33;-1.80;99.90
4429;DHT22;2227;47.810;8.810;2023-12-04T19:41:00;-2.00;99.90
4429;DHT22;2227;47.810;8.810;2023-12-04T19:43:26;-1.90;99.90
4429;DHT22;2227;47.810;8.810;2023-12-04T19:45:53;-1.80;99.90
4429;DHT22;2227;47.810;8.810;2023-12-04T19:48:20;-1.90;99.90
4429;DHT22;2227;47.810;8.810;2023-12-04T19:50:46;-2.00;99.90
4429;DHT22;2227;47.810;8.810;2023-12-04T19:53:13;-1.90;99.90
4429;DHT22;2227;47.810;8.810;2023-12-04T19:55:40;-1.70;99.90
4429;DHT22;2227;47.810;8.810;2023-12-04T19:58:06;-1.60;99.90
4429;DHT22;2227;47.810;8.810;2023-12-04T20:00:33;-1.60;99.90
4429;DHT22;2227;47.810;8.810;2023-12-04T20:03:03;-1.60;99.90
4429;DHT22;2227;47.810;8.810;2023-12-04T20:05:32;-1.70;99.90
4429;DHT22;2227;47.810;8.810;2023-12-04T20:07:59;-1.60;99.90
4429;DHT22;2227;47.810;8.810;2023-12-04T20:10:26;-1.50;99.90
4429;DHT22;2227;47.810;8.810;2023-12-04T20:12:53;-1.40;99.90
4429;DHT22;2227;47.810;8.810;2023-12-04T20:15:19;-1.30;99.90
4429;DHT22;2227;47.810;8.810;2023-12-04T20:17:46;-1.30;99.90
4429;DHT22;2227;47.810;8.810;2023-12-04T20:20:13;-1.20;99.90
4429;DHT22;2227;47.810;8.810;2023-12-04T20:22:39;-1.10;99.90
4429;DHT22;2227;47.810;8.810;2023-12-04T20:25:07;-1.20;99.90
4429;DHT22;2227;47.810;8.810;2023-12-04T20:27:33;-1.30;99.90
4429;DHT22;2227;47.810;8.810;2023-12-04T20:30:00;-1.10;99.90
4429;DHT22;2227;47.810;8.810;2023-12-04T20:32:27;-0.90;99.90
4429;DHT22;2227;47.810;8.810;2023-12-04T20:34:56;-1.00;99.90
4429;DHT22;2227;47.810;8.810;2023-12-04T20:37:25;-1.30;99.90
4429;DHT22;2227;47.810;8.810;2023-12-04T20:40:06;-1.50;99.90
4429;DHT22;2227;47.810;8.810;2023-12-04T20:42:34;-1.60;99.90
4429;DHT22;2227;47.810;8.810;2023-12-04T20:45:04;-1.40;99.90
4429;DHT22;2227;47.810;8.810;2023-12-04T20:47:31;-1.20;99.90
4429;DHT22;2227;47.810;8.810;2023-12-04T20:49:59;-1.10;99.90
4429;DHT22;2227;47.810;8.810;2023-12-04T20:52:26;-1.10;99.90
4429;DHT22;2227;47.810;8.810;2023-12-04T20:54:53;-1.00;99.90
4429;DHT22;2227;47.810;8.810;2023-12-04T20:57:20;-1.00;99.90
4429;DHT22;2227;47.810;8.810;2023-12-04T20:59:47;-0.90;99.90
4429;DHT22;2227;47.810;8.810;2023-12-04T21:02:14;-0.90;99.90
4429;DHT22;2227;47.810;8.810;2023-12-04T21:04:40;-1.00;99.90
4429;DHT22;2227;47.810;8.810;2023-12-04T21:07:07;-1.00;99.90